createdAt,value
2023-04-11T00:06:40.151Z,84.30
2023-04-11T00:16:50.042Z,79.90
2023-04-11T00:26:57.043Z,75.70
2023-04-11T00:37:04.182Z,53.40
2023-04-11T00:47:11.895Z,56.80
2023-04-11T00:57:18.835Z,53.40
2023-04-11T01:07:26.512Z,51.80
2023-04-11T01:17:34.279Z,78.90
2023-04-11T01:37:49.463Z,54.90
2023-04-11T01:47:56.968Z,48.70
2023-04-11T01:58:04.112Z,44.10
2023-04-11T02:08:11.368Z,47.10
2023-04-11T02:18:18.338Z,61.00
2023-04-11T02:28:25.356Z,51.90
2023-04-11T02:38:32.681Z,53.00
2023-04-11T02:48:39.805Z,51.50
2023-04-11T02:58:47.130Z,58.50
2023-04-11T03:08:54.662Z,51.70
2023-04-11T03:19:02.082Z,51.20
2023-04-11T03:29:09.407Z,50.70
2023-04-11T03:39:16.858Z,47.30
2023-04-11T03:49:23.852Z,50.10
2023-04-11T03:59:30.836Z,50.80
2023-04-11T04:09:38.431Z,49.00
2023-04-11T04:19:45.566Z,46.70
2023-04-11T04:30:03.603Z,39.60
2023-04-11T04:40:13.389Z,50.20
2023-04-11T04:50:19.309Z,35.80
2023-04-11T05:00:25.292Z,32.30
2023-04-11T05:10:32.227Z,31.20
2023-04-11T05:20:39.846Z,39.00
2023-04-11T05:40:53.568Z,49.40
2023-04-11T05:51:01.374Z,57.50
2023-04-11T06:01:07.684Z,60.00
2023-04-11T06:11:15.091Z,64.00
2023-04-11T06:21:22.078Z,52.90
2023-04-11T06:31:29.214Z,57.80
2023-04-11T06:41:37.180Z,47.80
2023-04-11T06:51:44.252Z,53.00
2023-04-11T07:01:51.993Z,51.80
2023-04-11T07:11:59.214Z,47.90
2023-04-11T07:22:06.945Z,40.10
2023-04-11T07:32:13.951Z,39.20
2023-04-11T07:42:20.929Z,31.30
2023-04-11T07:52:28.044Z,31.20
2023-04-11T08:02:35.817Z,21.80
2023-04-11T08:12:43.061Z,27.90
2023-04-11T08:22:50.499Z,17.00
2023-04-11T08:32:57.981Z,16.30
2023-04-11T08:43:10.299Z,15.40
2023-04-11T08:53:21.550Z,11.90
2023-04-11T09:03:28.882Z,10.70
2023-04-11T09:13:36.830Z,11.30
2023-04-11T09:23:44.538Z,10.90
2023-04-11T09:33:53.824Z,9.10
2023-04-11T09:44:02.111Z,9.20
2023-04-11T09:54:11.742Z,18.20
2023-04-11T10:04:20.589Z,19.80
2023-04-11T10:14:44.065Z,10.60
2023-04-11T10:25:22.178Z,10.90
2023-04-11T10:35:29.706Z,10.30
2023-04-11T10:45:40.221Z,10.10
2023-04-11T10:55:48.211Z,11.10
2023-04-11T11:05:58.397Z,12.30
2023-04-11T11:16:05.701Z,12.40
2023-04-11T11:26:12.813Z,11.00
2023-04-11T11:36:20.171Z,11.40
2023-04-11T11:46:26.371Z,10.90
2023-04-11T12:06:39.103Z,10.10
2023-04-11T12:16:45.387Z,8.60
2023-04-11T12:27:05.667Z,10.00
2023-04-11T12:37:14.341Z,10.50
2023-04-11T12:47:21.855Z,9.20
2023-04-11T12:57:28.486Z,29.70
2023-04-11T13:07:33.863Z,13.40
2023-04-11T13:17:41.427Z,13.00
2023-04-11T13:27:47.707Z,12.50
2023-04-11T13:37:54.850Z,11.70
2023-04-11T13:48:02.131Z,10.80
2023-04-11T13:58:09.640Z,10.50
2023-04-11T14:08:17.045Z,15.00
2023-04-11T14:18:24.240Z,12.80
2023-04-11T14:28:32.361Z,15.10
2023-04-11T14:38:39.934Z,18.50
2023-04-11T14:48:47.362Z,17.10
2023-04-11T14:58:54.590Z,19.20
2023-04-11T15:09:03.298Z,21.10
2023-04-11T15:19:09.627Z,27.20
2023-04-11T15:29:15.948Z,25.30
2023-04-11T15:39:23.267Z,24.60
2023-04-11T15:49:30.387Z,22.10
2023-04-11T15:59:38.174Z,21.90
2023-04-11T16:09:44.472Z,23.30
2023-04-11T16:19:54.158Z,21.30
2023-04-11T16:30:00.670Z,15.40
2023-04-11T16:40:11.477Z,13.20
2023-04-11T16:50:19.316Z,46.10
2023-04-11T17:00:24.339Z,23.20
2023-04-11T17:10:31.433Z,22.90
2023-04-11T17:20:38.817Z,6.80
2023-04-11T17:30:47.105Z,6.90
2023-04-11T17:41:00.127Z,8.70
2023-04-11T17:51:11.093Z,5.50
2023-04-11T18:01:18.208Z,9.00
2023-04-11T18:11:25.909Z,10.20
2023-04-11T18:21:32.956Z,6.70
2023-04-11T18:31:40.103Z,8.10
2023-04-11T18:41:48.484Z,10.00
2023-04-11T18:51:56.208Z,11.50
2023-04-11T19:02:03.635Z,8.40
2023-04-11T19:12:16.195Z,7.30
2023-04-11T19:22:23.212Z,7.70
2023-04-11T19:32:30.597Z,8.10
2023-04-11T19:42:39.985Z,8.50
2023-04-11T19:52:47.671Z,9.90
2023-04-11T20:02:54.924Z,18.60
2023-04-11T20:13:02.298Z,17.20
2023-04-11T20:23:08.360Z,14.20
2023-04-11T20:33:15.426Z,15.80
2023-04-11T20:43:25.321Z,9.20
2023-04-11T20:53:33.445Z,13.10
2023-04-11T21:03:42.675Z,13.80
2023-04-11T21:13:51.434Z,15.10
2023-04-11T21:23:58.883Z,16.20
2023-04-11T21:34:06.369Z,18.00
2023-04-11T21:44:13.350Z,19.00
2023-04-11T21:54:20.879Z,16.20
2023-04-11T22:04:29.275Z,17.50
2023-04-11T22:14:38.484Z,17.40
2023-04-11T22:24:47.216Z,19.80
2023-04-11T22:34:54.186Z,20.00
2023-04-11T22:45:01.649Z,20.20
2023-04-11T22:55:10.388Z,16.00
2023-04-11T23:05:16.995Z,16.70
2023-04-11T23:15:24.029Z,13.10
2023-04-11T23:25:30.996Z,12.40
2023-04-11T23:35:38.889Z,11.10
2023-04-11T23:45:46.328Z,7.70
2023-04-11T23:55:53.914Z,5.90
